Time;durP1;ratioP1;P1;durP2;ratioP2;P2;SDS_P1;SDS_P2;PMS_P1;PMS_P2;Temp;Humidity;BMP_temperature;BMP_pressure;BME280_temperature;BME280_humidity;BME280_pressure;Samples;Min_cycle;Max_cycle;Signal;HPM_P1;HPM_P2
2021/12/02 00:02:21;;;;;;;;;;;2.20;79.60;;;;;;5019192;28;87196;-61
2021/12/02 00:04:48;;;;;;;;;;;2.20;79.50;;;;;;5019990;28;87182;-61
2021/12/02 00:07:13;;;;;;;;;;;2.20;79.60;;;;;;5019404;28;89065;-61
2021/12/02 00:09:39;;;;;;;;;;;2.20;79.60;;;;;;5019722;28;89528;-61
2021/12/02 00:12:06;;;;;;;;;;;2.20;79.70;;;;;;5021586;28;86425;-61
2021/12/02 00:14:40;;;;;;;;;;;2.20;79.60;;;;;;5021303;28;87280;-60
2021/12/02 00:17:14;;;;;;;;;;;2.20;79.60;;;;;;5020602;28;89651;-61
2021/12/02 00:22:25;;;;;;;;;;;2.20;79.70;;;;;;5017930;28;87182;-61
2021/12/02 00:24:54;;;;;;;;;;;2.20;79.70;;;;;;5016982;28;88800;-61
2021/12/02 00:27:20;;;;;;;;;;;2.20;79.70;;;;;;5018097;28;87853;-61
2021/12/02 00:29:46;;;;;;;;;;;2.20;79.70;;;;;;5017453;28;88298;-61
2021/12/02 00:32:11;;;;;;;;;;;2.20;79.70;;;;;;5016933;28;87230;-61
2021/12/02 00:34:44;;;;;;;;;;;2.20;79.80;;;;;;5018007;28;87644;-61
2021/12/02 00:37:10;;;;;;;;;;;2.20;79.80;;;;;;5017353;28;87952;-61
2021/12/02 00:39:35;;;;;;;;;;;2.20;79.80;;;;;;5019457;28;87202;-61
2021/12/02 00:42:01;;;;;;;;;;;2.10;79.90;;;;;;5016850;28;89858;-61
2021/12/02 00:44:28;;;;;;;;;;;2.20;79.70;;;;;;5017650;28;88723;-61
2021/12/02 00:46:55;;;;;;;;;;;2.20;79.80;;;;;;5018114;28;87917;-61
2021/12/02 00:49:20;;;;;;;;;;;2.20;79.70;;;;;;5017161;28;88607;-61
2021/12/02 00:51:50;;;;;;;;;;;2.20;79.70;;;;;;5015585;28;87174;-61
2021/12/02 00:54:17;;;;;;;;;;;2.20;79.70;;;;;;5017633;28;87164;-61
2021/12/02 00:56:42;;;;;;;;;;;2.20;79.90;;;;;;5016975;28;87627;-61
2021/12/02 00:59:08;;;;;;;;;;;2.10;79.80;;;;;;5022948;28;87276;-61
2021/12/02 01:01:36;;;;;;;;;;;2.20;80.00;;;;;;5020007;28;88063;-61
2021/12/02 01:04:11;;;;;;;;;;;2.20;79.70;;;;;;5019869;28;87131;-61
2021/12/02 01:06:37;;;;;;;;;;;2.10;79.70;;;;;;5017265;28;87229;-61
2021/12/02 01:09:06;;;;;;;;;;;2.10;79.60;;;;;;5016106;28;88693;-61
2021/12/02 01:11:32;;;;;;;;;;;2.10;79.60;;;;;;5017755;28;88220;-61
2021/12/02 01:13:58;;;;;;;;;;;2.10;79.60;;;;;;5017157;28;88393;-61
2021/12/02 01:16:24;;;;;;;;;;;2.10;79.60;;;;;;5018170;28;89713;-61
2021/12/02 01:18:50;;;;;;;;;;;2.10;79.80;;;;;;5017556;28;87155;-61
2021/12/02 01:21:16;;;;;;;;;;;2.10;79.80;;;;;;5020024;28;88761;-61
2021/12/02 01:23:43;;;;;;;;;;;2.10;79.80;;;;;;5017594;28;88471;-61
2021/12/02 01:26:09;;;;;;;;;;;2.10;79.80;;;;;;5020686;28;87631;-61
2021/12/02 01:28:35;;;;;;;;;;;2.10;79.80;;;;;;5019317;28;88446;-62
2021/12/02 01:31:01;;;;;;;;;;;2.10;79.80;;;;;;5019350;28;87222;-61
2021/12/02 01:33:27;;;;;;;;;;;2.10;79.90;;;;;;5019211;28;88755;-61
2021/12/02 01:35:57;;;;;;;;;;;2.10;79.80;;;;;;5016681;28;89221;-61
2021/12/02 01:38:24;;;;;;;;;;;2.10;79.90;;;;;;5018769;28;87202;-61
2021/12/02 01:40:50;;;;;;;;;;;2.10;79.90;;;;;;5018967;28;88894;-61
2021/12/02 01:43:17;;;;;;;;;;;2.10;79.80;;;;;;5022836;28;87881;-62
2021/12/02 01:45:43;;;;;;;;;;;2.10;79.70;;;;;;5018485;28;88747;-61
2021/12/02 01:48:09;;;;;;;;;;;2.10;79.60;;;;;;5015276;28;88331;-61
2021/12/02 01:50:38;;;;;;;;;;;2.10;79.80;;;;;;5021165;28;87280;-61
2021/12/02 01:53:04;;;;;;;;;;;2.00;79.80;;;;;;5017901;28;87115;-61
2021/12/02 01:55:29;;;;;;;;;;;2.10;79.80;;;;;;5017943;28;90818;-61
2021/12/02 01:58:02;;;;;;;;;;;2.10;79.70;;;;;;5016988;28;89779;-61
2021/12/02 02:00:33;;;;;;;;;;;2.10;79.80;;;;;;5017581;28;88728;-61
2021/12/02 02:02:59;;;;;;;;;;;2.00;79.80;;;;;;5019050;28;89182;-61
2021/12/02 02:05:25;;;;;;;;;;;2.00;79.80;;;;;;5025155;28;87172;-61
2021/12/02 02:08:02;;;;;;;;;;;2.00;79.80;;;;;;5019589;28;89178;-61
2021/12/02 02:10:29;;;;;;;;;;;2.00;79.80;;;;;;5020798;28;87138;-61
2021/12/02 02:12:58;;;;;;;;;;;2.00;79.80;;;;;;5019101;28;87365;-61
2021/12/02 02:15:23;;;;;;;;;;;2.00;80.40;;;;;;5021301;28;88968;-61
2021/12/02 02:17:57;;;;;;;;;;;2.00;79.80;;;;;;5022056;28;87158;-61
2021/12/02 02:20:35;;;;;;;;;;;2.00;79.80;;;;;;5020005;28;88003;-61
2021/12/02 02:23:01;;;;;;;;;;;2.00;79.90;;;;;;5020829;28;89049;-61
2021/12/02 02:25:26;;;;;;;;;;;2.00;80.50;;;;;;5022057;28;87292;-61
2021/12/02 02:27:52;;;;;;;;;;;1.90;79.70;;;;;;5022231;28;88070;-61
2021/12/02 02:30:17;;;;;;;;;;;2.00;80.00;;;;;;5022441;28;87147;-61
2021/12/02 02:32:43;;;;;;;;;;;2.00;80.00;;;;;;5020068;28;87375;-62
2021/12/02 02:35:08;;;;;;;;;;;2.00;80.00;;;;;;5020446;28;87688;-61
2021/12/02 02:37:36;;;;;;;;;;;1.90;79.90;;;;;;5021248;28;87131;-61
2021/12/02 02:40:07;;;;;;;;;;;2.00;80.00;;;;;;5023447;28;88894;-61
2021/12/02 02:42:33;;;;;;;;;;;1.90;80.00;;;;;;5021167;28;89110;-61
2021/12/02 02:44:59;;;;;;;;;;;1.90;80.00;;;;;;5021092;28;88255;-61
2021/12/02 02:47:26;;;;;;;;;;;2.00;79.90;;;;;;5022578;28;89379;-61
2021/12/02 02:49:52;;;;;;;;;;;1.90;80.00;;;;;;5024182;28;89504;-61
2021/12/02 02:52:18;;;;;;;;;;;1.90;80.00;;;;;;5020118;28;88676;-61
2021/12/02 02:54:43;;;;;;;;;;;1.90;80.00;;;;;;5020657;28;87650;-61
2021/12/02 02:57:12;;;;;;;;;;;1.90;80.00;;;;;;5020776;28;87229;-61
2021/12/02 03:07:33;;;;;;;;;;;1.90;80.00;;;;;;5020373;28;87177;-61
2021/12/02 03:12:51;;;;;;;;;;;1.90;80.00;;;;;;5021013;28;88096;-62
2021/12/02 03:17:43;;;;;;;;;;;1.90;80.00;;;;;;5019089;28;87362;-62
2021/12/02 03:20:09;;;;;;;;;;;1.90;80.70;;;;;;5021378;28;87563;-61
2021/12/02 03:22:34;;;;;;;;;;;1.90;80.20;;;;;;5019237;28;89788;-61
2021/12/02 03:25:00;;;;;;;;;;;1.80;80.10;;;;;;5019949;28;87140;-62
2021/12/02 03:27:26;;;;;;;;;;;1.80;80.10;;;;;;5019818;28;88807;-61
2021/12/02 03:29:52;;;;;;;;;;;1.80;80.10;;;;;;5020560;28;88755;-61
2021/12/02 03:32:17;;;;;;;;;;;1.80;80.10;;;;;;5023406;28;87263;-61
2021/12/02 03:34:43;;;;;;;;;;;1.80;80.10;;;;;;5019057;28;87643;-61
2021/12/02 03:37:09;;;;;;;;;;;1.80;80.10;;;;;;5020244;28;89335;-62
2021/12/02 03:39:34;;;;;;;;;;;1.80;80.10;;;;;;5018130;28;90958;-62
2021/12/02 03:42:00;;;;;;;;;;;1.80;80.10;;;;;;5017513;28;88602;-61
2021/12/02 03:44:26;;;;;;;;;;;1.80;80.00;;;;;;5018392;28;87099;-62
2021/12/02 03:46:52;;;;;;;;;;;1.80;80.10;;;;;;5021248;28;89071;-62
2021/12/02 03:49:18;;;;;;;;;;;1.80;80.10;;;;;;5019232;28;88702;-61
2021/12/02 03:51:44;;;;;;;;;;;1.80;80.20;;;;;;5019518;28;87236;-62
2021/12/02 03:54:09;;;;;;;;;;;1.80;80.20;;;;;;5023432;28;86750;-62
2021/12/02 03:56:35;;;;;;;;;;;1.80;80.00;;;;;;5018530;28;87262;-61
2021/12/02 03:59:00;;;;;;;;;;;1.80;80.00;;;;;;5020846;28;87477;-61
2021/12/02 04:01:26;;;;;;;;;;;1.80;80.00;;;;;;5017301;28;88535;-61
2021/12/02 04:03:52;;;;;;;;;;;1.80;80.00;;;;;;5019205;28;87209;-61
2021/12/02 04:06:19;;;;;;;;;;;1.80;80.00;;;;;;5019007;28;87557;-61
2021/12/02 04:09:03;;;;;;;;;;;1.80;80.00;;;;;;5019351;28;87431;-62
2021/12/02 04:16:36;;;;;;;;;;;1.80;80.00;;;;;;5023663;28;88213;-62
2021/12/02 04:19:02;;;;;;;;;;;1.80;80.10;;;;;;5020370;28;87951;-62
2021/12/02 04:21:28;;;;;;;;;;;1.80;80.10;;;;;;5019665;28;88292;-62
2021/12/02 04:23:53;;;;;;;;;;;1.70;80.00;;;;;;5017765;28;87156;-61
2021/12/02 04:26:19;;;;;;;;;;;1.70;79.90;;;;;;5019747;28;88801;-62
2021/12/02 04:28:44;;;;;;;;;;;1.80;80.00;;;;;;5017472;28;88322;-62
2021/12/02 04:31:10;;;;;;;;;;;1.70;80.00;;;;;;5018320;28;87166;-61
2021/12/02 04:33:36;;;;;;;;;;;1.70;80.00;;;;;;5017838;28;87354;-62
2021/12/02 04:36:02;;;;;;;;;;;1.70;80.00;;;;;;5020201;28;88149;-61
2021/12/02 04:38:28;;;;;;;;;;;1.70;80.20;;;;;;5022032;28;88798;-61
2021/12/02 04:40:54;;;;;;;;;;;1.70;80.20;;;;;;5018050;28;89550;-62
2021/12/02 04:43:20;;;;;;;;;;;1.70;80.10;;;;;;5020322;28;86540;-62
2021/12/02 04:45:45;;;;;;;;;;;1.70;80.10;;;;;;5016969;28;88169;-61
2021/12/02 04:48:11;;;;;;;;;;;1.70;80.00;;;;;;5017610;28;88685;-61
2021/12/02 04:50:37;;;;;;;;;;;1.70;80.00;;;;;;5017529;28;89555;-61
2021/12/02 04:53:02;;;;;;;;;;;1.70;79.90;;;;;;5019244;28;88781;-61
2021/12/02 04:55:28;;;;;;;;;;;1.70;79.90;;;;;;5018248;28;89116;-61
2021/12/02 04:57:54;;;;;;;;;;;1.70;79.90;;;;;;5018540;28;87276;-61
2021/12/02 05:00:20;;;;;;;;;;;1.70;79.90;;;;;;5022381;28;88865;-61
2021/12/02 05:02:45;;;;;;;;;;;1.70;80.00;;;;;;5016943;28;87180;-61
2021/12/02 05:05:11;;;;;;;;;;;1.70;80.00;;;;;;5019979;28;88330;-61
2021/12/02 05:07:37;;;;;;;;;;;1.70;79.90;;;;;;5017881;28;87863;-61
2021/12/02 05:10:03;;;;;;;;;;;1.70;80.00;;;;;;5017197;28;87188;-61
2021/12/02 05:12:29;;;;;;;;;;;1.70;79.90;;;;;;5016687;28;87424;-61
2021/12/02 05:14:55;;;;;;;;;;;1.70;80.10;;;;;;5016769;28;88913;-61
2021/12/02 05:17:20;;;;;;;;;;;1.70;80.50;;;;;;5017994;28;87137;-61
2021/12/02 05:19:46;;;;;;;;;;;1.70;79.90;;;;;;5021513;28;88764;-62
2021/12/02 05:22:11;;;;;;;;;;;1.70;80.00;;;;;;5019628;28;87156;-61
2021/12/02 05:24:37;;;;;;;;;;;1.70;80.00;;;;;;5020335;28;87187;-61
2021/12/02 05:27:03;;;;;;;;;;;1.60;80.00;;;;;;5020509;28;87985;-61
2021/12/02 05:29:28;;;;;;;;;;;1.60;79.90;;;;;;5017968;28;87338;-61
2021/12/02 05:31:54;;;;;;;;;;;1.60;80.00;;;;;;5016480;28;87911;-61
2021/12/02 05:34:19;;;;;;;;;;;1.60;80.00;;;;;;5016820;28;87833;-62
2021/12/02 05:36:45;;;;;;;;;;;1.60;80.00;;;;;;5018502;28;87227;-63
2021/12/02 05:39:10;;;;;;;;;;;1.60;80.00;;;;;;5020809;28;88133;-63
2021/12/02 05:41:36;;;;;;;;;;;1.60;80.00;;;;;;5023586;28;88191;-61
2021/12/02 05:44:02;;;;;;;;;;;1.60;80.30;;;;;;5020540;28;87172;-61
2021/12/02 05:46:27;;;;;;;;;;;1.60;80.10;;;;;;5020737;28;89919;-62
2021/12/02 05:48:53;;;;;;;;;;;1.60;80.20;;;;;;5022004;28;87140;-62
2021/12/02 05:51:19;;;;;;;;;;;1.60;80.20;;;;;;5023379;28;87169;-62
2021/12/02 05:53:44;;;;;;;;;;;1.60;80.10;;;;;;5022419;28;88657;-63
2021/12/02 05:56:10;;;;;;;;;;;1.60;80.20;;;;;;5019790;28;88193;-62
2021/12/02 05:58:35;;;;;;;;;;;1.60;80.20;;;;;;5020031;28;88641;-62
2021/12/02 06:01:01;;;;;;;;;;;1.60;80.10;;;;;;5020823;28;87732;-62
2021/12/02 06:03:27;;;;;;;;;;;1.60;80.10;;;;;;5024655;28;88110;-62
2021/12/02 06:05:52;;;;;;;;;;;1.60;80.30;;;;;;5022716;28;89254;-62
2021/12/02 06:08:18;;;;;;;;;;;1.60;80.10;;;;;;5022104;28;88717;-62
2021/12/02 06:10:43;;;;;;;;;;;1.50;80.30;;;;;;5018971;28;88673;-62
2021/12/02 06:13:09;;;;;;;;;;;1.60;80.10;;;;;;5019463;28;88191;-62
2021/12/02 06:15:35;;;;;;;;;;;1.60;80.30;;;;;;5020763;28;87290;-61
2021/12/02 06:18:00;;;;;;;;;;;1.60;80.10;;;;;;5021656;28;87394;-62
2021/12/02 06:20:26;;;;;;;;;;;1.60;80.00;;;;;;5022034;28;87544;-62
2021/12/02 06:22:51;;;;;;;;;;;1.60;80.00;;;;;;5023051;28;87185;-62
2021/12/02 06:27:46;;;;;;;;;;;1.50;80.40;;;;;;5021421;28;88104;-62
2021/12/02 06:30:12;;;;;;;;;;;1.50;80.10;;;;;;5020658;28;90107;-62
2021/12/02 06:32:38;;;;;;;;;;;1.50;80.70;;;;;;5018982;28;87801;-62
2021/12/02 06:35:04;;;;;;;;;;;1.50;80.30;;;;;;5018056;28;88414;-62
2021/12/02 06:37:30;;;;;;;;;;;1.60;80.30;;;;;;5023275;28;89353;-62
2021/12/02 06:39:55;;;;;;;;;;;1.60;80.30;;;;;;5022093;28;87666;-61
2021/12/02 06:42:21;;;;;;;;;;;1.50;80.30;;;;;;5022717;28;87205;-62
2021/12/02 06:44:46;;;;;;;;;;;1.50;80.30;;;;;;5021708;28;87910;-62
2021/12/02 06:47:12;;;;;;;;;;;1.60;80.40;;;;;;5020958;28;88255;-62
2021/12/02 06:49:39;;;;;;;;;;;1.50;80.30;;;;;;5019613;28;87218;-62
2021/12/02 06:52:09;;;;;;;;;;;1.50;80.30;;;;;;5017740;28;89857;-62
2021/12/02 06:54:35;;;;;;;;;;;1.50;80.20;;;;;;5019993;28;87166;-62
2021/12/02 06:57:01;;;;;;;;;;;1.60;80.40;;;;;;5021269;28;87218;-62
2021/12/02 06:59:26;;;;;;;;;;;1.50;80.30;;;;;;5022038;28;88131;-62
2021/12/02 07:01:52;;;;;;;;;;;1.50;80.40;;;;;;5021375;28;88935;-62
2021/12/02 07:04:17;;;;;;;;;;;1.60;80.30;;;;;;5018107;28;88789;-62
2021/12/02 07:06:44;;;;;;;;;;;1.50;80.20;;;;;;5018692;28;89114;-62
2021/12/02 07:09:10;;;;;;;;;;;1.60;80.30;;;;;;5021949;28;86428;-62
2021/12/02 07:11:35;;;;;;;;;;;1.60;80.30;;;;;;5019253;28;87757;-62
2021/12/02 07:14:05;;;;;;;;;;;1.60;80.30;;;;;;5020686;28;87178;-63
2021/12/02 07:16:32;;;;;;;;;;;1.50;80.20;;;;;;5019141;28;89302;-63
2021/12/02 07:18:58;;;;;;;;;;;1.60;80.30;;;;;;5021888;28;89505;-62
2021/12/02 07:21:24;;;;;;;;;;;1.60;80.30;;;;;;5021765;28;87814;-62
2021/12/02 07:23:53;;;;;;;;;;;1.50;80.40;;;;;;5021044;28;89717;-62
2021/12/02 07:26:18;;;;;;;;;;;1.60;80.40;;;;;;5020095;28;87981;-62
2021/12/02 07:28:45;;;;;;;;;;;1.60;80.40;;;;;;5023968;28;87187;-62
2021/12/02 07:31:11;;;;;;;;;;;1.60;80.40;;;;;;5019784;28;89575;-62
2021/12/02 07:33:38;;;;;;;;;;;1.50;80.30;;;;;;5021183;28;86457;-62
2021/12/02 07:36:04;;;;;;;;;;;1.60;80.50;;;;;;5019966;28;87139;-62
2021/12/02 07:38:30;;;;;;;;;;;1.60;80.40;;;;;;5019557;28;88282;-62
2021/12/02 07:40:59;;;;;;;;;;;1.60;80.50;;;;;;5020083;28;88092;-62
2021/12/02 07:43:26;;;;;;;;;;;1.60;80.20;;;;;;5017886;28;88551;-62
2021/12/02 07:45:51;;;;;;;;;;;1.60;80.10;;;;;;5017396;28;88708;-62
2021/12/02 07:48:17;;;;;;;;;;;1.60;80.20;;;;;;5018423;28;87125;-61
2021/12/02 07:50:43;;;;;;;;;;;1.60;80.00;;;;;;5021338;28;87859;-62
2021/12/02 07:53:08;;;;;;;;;;;1.60;80.00;;;;;;5019917;28;87104;-62
2021/12/02 07:55:39;;;;;;;;;;;1.70;80.10;;;;;;5020801;28;87700;-62
2021/12/02 07:58:06;;;;;;;;;;;1.60;79.90;;;;;;5021799;28;86835;-62
2021/12/02 08:00:32;;;;;;;;;;;1.70;80.00;;;;;;5019205;28;87130;-62
2021/12/02 08:02:57;;;;;;;;;;;1.70;79.90;;;;;;5020953;28;87400;-62
2021/12/02 08:05:24;;;;;;;;;;;1.70;80.00;;;;;;5020380;28;89085;-62
2021/12/02 08:07:51;;;;;;;;;;;1.70;80.00;;;;;;5020204;28;87151;-62
2021/12/02 08:10:17;;;;;;;;;;;1.70;80.00;;;;;;5019276;28;87996;-62
2021/12/02 08:12:47;;;;;;;;;;;1.70;79.90;;;;;;5021274;28;89823;-62
2021/12/02 08:15:13;;;;;;;;;;;1.70;79.90;;;;;;5018116;28;88840;-62
2021/12/02 08:17:39;;;;;;;;;;;1.70;80.00;;;;;;5016749;28;87575;-62
2021/12/02 08:20:05;;;;;;;;;;;1.70;79.70;;;;;;5018266;28;87127;-62
2021/12/02 08:22:32;;;;;;;;;;;1.80;80.30;;;;;;5019452;28;88294;-62
2021/12/02 08:24:58;;;;;;;;;;;1.80;79.70;;;;;;5018145;28;89543;-62
2021/12/02 08:27:23;;;;;;;;;;;1.80;79.60;;;;;;5018873;28;87166;-62
2021/12/02 08:29:49;;;;;;;;;;;1.80;79.70;;;;;;5019590;28;88126;-62
2021/12/02 08:32:14;;;;;;;;;;;1.80;79.90;;;;;;5020881;28;87647;-62
2021/12/02 08:34:40;;;;;;;;;;;1.80;79.80;;;;;;5021915;28;88626;-62
2021/12/02 08:37:07;;;;;;;;;;;1.90;79.80;;;;;;5016458;28;87189;-62
2021/12/02 08:39:33;;;;;;;;;;;1.80;80.20;;;;;;5018361;28;88058;-62
2021/12/02 08:41:59;;;;;;;;;;;1.80;80.40;;;;;;5016404;28;90187;-61
2021/12/02 08:44:25;;;;;;;;;;;1.80;80.50;;;;;;5017137;28;88154;-62
2021/12/02 08:46:52;;;;;;;;;;;1.80;80.80;;;;;;5017637;28;86487;-62
2021/12/02 08:49:18;;;;;;;;;;;1.80;80.50;;;;;;5017482;28;87159;-62
2021/12/02 08:51:45;;;;;;;;;;;1.90;80.20;;;;;;5016488;28;87988;-62
2021/12/02 08:54:12;;;;;;;;;;;1.90;80.50;;;;;;5016023;28;88225;-62
2021/12/02 08:56:37;;;;;;;;;;;1.90;80.20;;;;;;5018970;28;90274;-62
2021/12/02 08:59:03;;;;;;;;;;;1.90;80.50;;;;;;5017307;28;87123;-62
2021/12/02 09:01:29;;;;;;;;;;;1.90;80.60;;;;;;5018482;28;87901;-62
2021/12/02 09:03:55;;;;;;;;;;;1.90;80.50;;;;;;5018875;28;89853;-62
2021/12/02 09:06:22;;;;;;;;;;;1.90;80.60;;;;;;5018888;28;87126;-62
2021/12/02 09:08:48;;;;;;;;;;;2.00;80.20;;;;;;5018284;28;88796;-62
2021/12/02 09:11:14;;;;;;;;;;;2.00;80.40;;;;;;5019362;28;87680;-62
2021/12/02 09:13:39;;;;;;;;;;;1.90;80.20;;;;;;5019407;28;87103;-63
2021/12/02 09:16:05;;;;;;;;;;;2.00;80.40;;;;;;5021817;28;87443;-62
2021/12/02 09:18:30;;;;;;;;;;;2.00;80.10;;;;;;5016214;28;89270;-62
2021/12/02 09:20:58;;;;;;;;;;;1.90;80.50;;;;;;5016659;28;88816;-62
2021/12/02 09:23:24;;;;;;;;;;;2.00;80.60;;;;;;5015535;28;90965;-62
2021/12/02 09:25:50;;;;;;;;;;;2.00;80.50;;;;;;5017029;28;88124;-62
2021/12/02 09:28:15;;;;;;;;;;;1.90;80.30;;;;;;5016562;28;87458;-62
2021/12/02 09:30:42;;;;;;;;;;;1.90;80.70;;;;;;5017490;28;87808;-62
2021/12/02 09:33:07;;;;;;;;;;;2.00;80.80;;;;;;5018349;28;87147;-63
2021/12/02 09:35:33;;;;;;;;;;;2.00;80.50;;;;;;5018436;28;86511;-62
2021/12/02 09:37:59;;;;;;;;;;;2.00;80.50;;;;;;5018872;28;87670;-62
2021/12/02 09:40:25;;;;;;;;;;;2.00;80.40;;;;;;5016749;28;87305;-62
2021/12/02 09:42:50;;;;;;;;;;;2.00;80.30;;;;;;5016663;28;88952;-63
2021/12/02 09:45:16;;;;;;;;;;;2.00;80.40;;;;;;5018960;28;87166;-62
2021/12/02 09:47:43;;;;;;;;;;;2.10;80.20;;;;;;5019784;28;87235;-62
2021/12/02 09:50:17;;;;;;;;;;;2.10;80.30;;;;;;5018057;28;89880;-63
2021/12/02 09:52:44;;;;;;;;;;;2.10;81.00;;;;;;5016117;28;87740;-62
2021/12/02 09:57:46;;;;;;;;;;;2.10;80.50;;;;;;5019770;28;87883;-62
2021/12/02 10:00:17;;;;;;;;;;;2.10;80.30;;;;;;5019056;28;86384;-63
2021/12/02 10:02:52;;;;;;;;;;;2.10;80.60;;;;;;5016478;28;89289;-62
2021/12/02 10:05:32;;;;;;;;;;;2.10;80.00;;;;;;5017674;28;87181;-62
2021/12/02 10:08:02;;;;;;;;;;;2.10;80.00;;;;;;5019311;28;88537;-63
2021/12/02 10:10:40;;;;;;;;;;;2.20;80.60;;;;;;5015256;28;89750;-62
2021/12/02 10:13:07;;;;;;;;;;;2.20;80.30;;;;;;5019905;28;87221;-63
2021/12/02 10:15:36;;;;;;;;;;;2.20;80.30;;;;;;5018638;28;87137;-63
2021/12/02 10:18:09;;;;;;;;;;;2.20;80.10;;;;;;5016143;28;88372;-63
2021/12/02 10:20:39;;;;;;;;;;;2.20;80.20;;;;;;5019786;28;87188;-63
2021/12/02 10:23:24;;;;;;;;;;;2.20;80.30;;;;;;5017780;28;89061;-63
2021/12/02 10:25:54;;;;;;;;;;;2.20;80.00;;;;;;5021678;28;86470;-63
2021/12/02 10:28:20;;;;;;;;;;;2.20;80.00;;;;;;5022843;28;87153;-62
2021/12/02 10:30:50;;;;;;;;;;;2.20;80.30;;;;;;5022264;28;88323;-63
2021/12/02 10:33:27;;;;;;;;;;;2.20;80.50;;;;;;5022640;28;88121;-63
2021/12/02 10:35:53;;;;;;;;;;;2.20;80.20;;;;;;5021903;28;88526;-63
2021/12/02 10:38:37;;;;;;;;;;;2.30;80.70;;;;;;5022544;28;87505;-63
2021/12/02 10:41:06;;;;;;;;;;;2.30;80.50;;;;;;5019822;28;87127;-63
2021/12/02 10:43:31;;;;;;;;;;;2.30;80.20;;;;;;5023292;28;87372;-63
2021/12/02 10:46:17;;;;;;;;;;;2.30;80.30;;;;;;5025911;28;88792;-62
2021/12/02 10:48:44;;;;;;;;;;;2.20;80.50;;;;;;5019987;28;88594;-62
2021/12/02 10:51:29;;;;;;;;;;;2.20;80.50;;;;;;5022551;28;88838;-63
2021/12/02 10:53:58;;;;;;;;;;;2.20;80.60;;;;;;5021868;28;87147;-63
2021/12/02 10:56:31;;;;;;;;;;;2.30;80.60;;;;;;5022766;28;87638;-63
2021/12/02 10:58:57;;;;;;;;;;;2.20;80.60;;;;;;5018534;28;89074;-62
2021/12/02 11:01:39;;;;;;;;;;;2.30;80.80;;;;;;5020683;28;87182;-62
2021/12/02 11:04:05;;;;;;;;;;;2.30;80.70;;;;;;5020390;28;88071;-62
2021/12/02 11:06:41;;;;;;;;;;;2.30;80.80;;;;;;5020080;28;88263;-62
2021/12/02 11:09:22;;;;;;;;;;;2.30;80.80;;;;;;5023922;28;87123;-63
2021/12/02 11:12:03;;;;;;;;;;;2.40;80.40;;;;;;5021152;28;87708;-63
2021/12/02 11:14:28;;;;;;;;;;;2.40;80.60;;;;;;5022094;28;87685;-62
2021/12/02 11:17:05;;;;;;;;;;;2.40;80.40;;;;;;5019505;28;87448;-63
2021/12/02 11:19:30;;;;;;;;;;;2.40;80.70;;;;;;5017549;28;88546;-62
2021/12/02 11:22:06;;;;;;;;;;;2.40;81.10;;;;;;5017542;28;88292;-63
2021/12/02 11:24:32;;;;;;;;;;;2.40;81.10;;;;;;5018427;28;88203;-63
2021/12/02 11:27:08;;;;;;;;;;;2.40;80.60;;;;;;5018236;28;87778;-64
2021/12/02 11:29:54;;;;;;;;;;;2.50;81.10;;;;;;5022379;28;87174;-63
2021/12/02 11:32:49;;;;;;;;;;;2.60;80.70;;;;;;5019654;28;89940;-64
2021/12/02 11:35:24;;;;;;;;;;;2.60;80.50;;;;;;5006663;28;87172;-64
2021/12/02 11:37:52;;;;;;;;;;;2.60;80.80;;;;;;5018945;28;89247;-64
2021/12/02 11:40:24;;;;;;;;;;;2.60;80.70;;;;;;5021505;28;88098;-64
2021/12/02 11:42:51;;;;;;;;;;;2.70;80.80;;;;;;5020738;28;86437;-64
2021/12/02 11:45:18;;;;;;;;;;;2.70;80.80;;;;;;5018829;28;87647;-64
2021/12/02 11:47:43;;;;;;;;;;;2.80;80.90;;;;;;5018271;28;88013;-64
2021/12/02 11:50:10;;;;;;;;;;;2.80;80.50;;;;;;5017893;28;88079;-64
2021/12/02 11:52:37;;;;;;;;;;;2.80;80.50;;;;;;5019834;28;91159;-64
2021/12/02 11:55:05;;;;;;;;;;;2.80;80.50;;;;;;5021818;28;88599;-64
2021/12/02 11:57:33;;;;;;;;;;;2.90;80.50;;;;;;5020337;28;89522;-64
2021/12/02 11:59:59;;;;;;;;;;;2.80;80.30;;;;;;5017744;28;89300;-65
2021/12/02 12:02:24;;;;;;;;;;;2.80;80.50;;;;;;5019012;28;87131;-64
2021/12/02 12:04:58;;;;;;;;;;;2.90;80.80;;;;;;5020189;28;88854;-65
2021/12/02 12:07:37;;;;;;;;;;;2.90;80.50;;;;;;5018261;28;87998;-65
2021/12/02 12:10:16;;;;;;;;;;;2.80;80.70;;;;;;5019807;28;87212;-65
2021/12/02 12:12:45;;;;;;;;;;;2.90;80.70;;;;;;5020654;28;88702;-65
2021/12/02 12:15:33;;;;;;;;;;;2.90;80.90;;;;;;5021587;28;90560;-65
2021/12/02 12:18:00;;;;;;;;;;;2.90;81.00;;;;;;5008859;28;87794;-66
2021/12/02 12:20:44;;;;;;;;;;;2.90;80.90;;;;;;5017160;28;89415;-65
2021/12/02 12:23:28;;;;;;;;;;;2.90;80.80;;;;;;5020300;28;87243;-66
2021/12/02 12:26:30;;;;;;;;;;;3.00;81.00;;;;;;5016865;28;88565;-65
2021/12/02 12:29:08;;;;;;;;;;;3.00;80.90;;;;;;4984708;28;89512;-65
2021/12/02 12:31:36;;;;;;;;;;;3.00;80.80;;;;;;5020821;28;87157;-64
2021/12/02 12:34:22;;;;;;;;;;;3.00;80.70;;;;;;5019637;28;87879;-64
2021/12/02 12:36:50;;;;;;;;;;;3.00;81.00;;;;;;5020190;28;88397;-65
2021/12/02 12:39:19;;;;;;;;;;;3.00;80.90;;;;;;5020982;28;87283;-64
2021/12/02 12:42:04;;;;;;;;;;;3.00;80.70;;;;;;5019629;28;90720;-65
2021/12/02 12:44:48;;;;;;;;;;;3.00;80.90;;;;;;5017406;28;88114;-65
2021/12/02 12:47:15;;;;;;;;;;;3.00;81.00;;;;;;5019632;28;87171;-65
2021/12/02 12:49:40;;;;;;;;;;;3.10;80.80;;;;;;5019493;28;87187;-65
2021/12/02 12:52:16;;;;;;;;;;;3.10;80.80;;;;;;5020827;28;87180;-65
2021/12/02 12:54:42;;;;;;;;;;;3.10;80.90;;;;;;5018868;28;88252;-65
2021/12/02 12:57:08;;;;;;;;;;;3.10;80.90;;;;;;5016076;28;88159;-65
2021/12/02 12:59:50;;;;;;;;;;;3.10;81.00;;;;;;5019037;28;86734;-65
2021/12/02 13:02:16;;;;;;;;;;;3.10;80.90;;;;;;5022448;28;88892;-65
2021/12/02 13:04:53;;;;;;;;;;;3.10;80.90;;;;;;5019307;28;87903;-65
2021/12/02 13:07:20;;;;;;;;;;;3.20;80.90;;;;;;5020293;28;88143;-65
2021/12/02 13:09:56;;;;;;;;;;;3.20;81.10;;;;;;5019770;28;89813;-65
2021/12/02 13:12:29;;;;;;;;;;;3.10;81.10;;;;;;5019833;28;88395;-65
2021/12/02 13:14:55;;;;;;;;;;;3.10;81.20;;;;;;5017989;28;88802;-65
2021/12/02 13:17:41;;;;;;;;;;;3.10;81.20;;;;;;5018162;28;89242;-64
2021/12/02 13:20:18;;;;;;;;;;;3.20;81.30;;;;;;5019207;28;87141;-65
2021/12/02 13:22:45;;;;;;;;;;;3.20;81.20;;;;;;5017995;28;88138;-65
2021/12/02 13:25:26;;;;;;;;;;;3.20;81.30;;;;;;5020967;28;87678;-64
2021/12/02 13:27:52;;;;;;;;;;;3.20;81.30;;;;;;5017949;28;88098;-64
2021/12/02 13:30:18;;;;;;;;;;;3.20;81.20;;;;;;5018752;28;87702;-65
2021/12/02 13:32:47;;;;;;;;;;;3.20;81.20;;;;;;5019525;28;88061;-65
2021/12/02 13:35:31;;;;;;;;;;;3.20;81.20;;;;;;5015578;28;87898;-65
2021/12/02 13:38:03;;;;;;;;;;;3.20;81.00;;;;;;5018824;28;87662;-65
2021/12/02 13:40:40;;;;;;;;;;;3.30;81.00;;;;;;5018062;28;87187;-65
2021/12/02 13:43:06;;;;;;;;;;;3.30;80.60;;;;;;5017071;28;87644;-65
2021/12/02 13:45:33;;;;;;;;;;;3.30;81.10;;;;;;5018614;28;88249;-64
2021/12/02 13:48:06;;;;;;;;;;;3.30;81.00;;;;;;5016021;28;88798;-65
2021/12/02 13:50:35;;;;;;;;;;;3.30;80.90;;;;;;5020289;28;89168;-64
2021/12/02 13:53:00;;;;;;;;;;;3.30;81.00;;;;;;5017246;28;87196;-65
2021/12/02 13:55:34;;;;;;;;;;;3.30;81.30;;;;;;5018344;28;87199;-64
2021/12/02 13:58:34;;;;;;;;;;;3.30;81.20;;;;;;5015362;28;89140;-64
2021/12/02 14:00:53;;;;;;;;;;;3.40;81.20;;;;;;5018896;28;88730;-64
2021/12/02 14:03:21;;;;;;;;;;;3.40;81.30;;;;;;5023663;28;87970;-64
2021/12/02 14:05:51;;;;;;;;;;;3.40;81.40;;;;;;5022668;28;87196;-65
2021/12/02 14:08:24;;;;;;;;;;;3.40;81.40;;;;;;5025631;28;88725;-65
2021/12/02 14:10:51;;;;;;;;;;;3.40;81.40;;;;;;5021588;28;89550;-64
2021/12/02 14:13:18;;;;;;;;;;;3.40;81.30;;;;;;5021829;28;87174;-64
2021/12/02 14:15:48;;;;;;;;;;;3.40;81.40;;;;;;5020433;28;87679;-65
2021/12/02 14:18:19;;;;;;;;;;;3.40;81.50;;;;;;5020646;28;89536;-65
2021/12/02 14:20:44;;;;;;;;;;;3.40;81.40;;;;;;5022368;28;87198;-65
2021/12/02 14:23:20;;;;;;;;;;;3.40;81.40;;;;;;5022387;28;89803;-65
2021/12/02 14:25:50;;;;;;;;;;;3.40;81.40;;;;;;5021466;28;89626;-65
2021/12/02 14:28:19;;;;;;;;;;;3.50;81.60;;;;;;5019952;28;87187;-65
2021/12/02 14:30:52;;;;;;;;;;;3.50;81.60;;;;;;5025326;28;89003;-66
2021/12/02 14:33:19;;;;;;;;;;;3.50;81.70;;;;;;5020263;28;87180;-66
2021/12/02 14:35:52;;;;;;;;;;;3.50;81.60;;;;;;5018843;28;87693;-66
2021/12/02 14:38:20;;;;;;;;;;;3.50;81.70;;;;;;5022614;28;89392;-66
2021/12/02 14:40:47;;;;;;;;;;;3.50;81.80;;;;;;5022459;28;86520;-66
2021/12/02 14:43:23;;;;;;;;;;;3.50;81.60;;;;;;5020743;28;88314;-66
2021/12/02 14:45:50;;;;;;;;;;;3.50;81.50;;;;;;5021630;28;87959;-66
2021/12/02 14:48:23;;;;;;;;;;;3.50;81.40;;;;;;5020071;28;88203;-66
2021/12/02 14:51:05;;;;;;;;;;;3.50;81.20;;;;;;5018563;28;89485;-66
2021/12/02 14:53:35;;;;;;;;;;;3.60;81.30;;;;;;5025294;28;88598;-65
2021/12/02 14:56:05;;;;;;;;;;;3.50;81.20;;;;;;5022965;28;88531;-65
2021/12/02 14:58:31;;;;;;;;;;;3.60;81.10;;;;;;5018342;28;89220;-65
2021/12/02 15:01:10;;;;;;;;;;;3.60;80.60;;;;;;5018182;28;87196;-65
2021/12/02 15:03:36;;;;;;;;;;;3.60;81.00;;;;;;5021339;28;87692;-65
2021/12/02 15:06:01;;;;;;;;;;;3.60;81.50;;;;;;5022963;28;86939;-65